Time;durP1;ratioP1;P1;durP2;ratioP2;P2;SDS_P1;SDS_P2;PMS_P1;PMS_P2;Temp;Humidity;BMP_temperature;BMP_pressure;BME280_temperature;BME280_humidity;BME280_pressure;Samples;Min_cycle;Max_cycle;Signal;HPM_P1;HPM_P2
2021/08/03 00:00:52;;;;;;;2.47;2.03;;;13.40;99.90;;;11.84;100.00;101074.72;3539545;39;103152;-84
2021/08/03 00:03:29;;;;;;;2.23;1.73;;;13.40;99.90;;;11.81;100.00;101082.19;3547722;39;101134;-83
2021/08/03 00:05:58;;;;;;;2.20;1.63;;;14.20;99.90;;;11.85;100.00;101094.34;3548472;39;100320;-82
2021/08/03 00:08:34;;;;;;;2.63;2.20;;;13.40;99.90;;;11.76;100.00;101101.41;3552136;39;100015;-82
2021/08/03 00:11:06;;;;;;;2.53;1.77;;;13.40;99.90;;;11.70;100.00;101117.19;3547704;39;101266;-84
2021/08/03 00:13:35;;;;;;;1.90;1.80;;;13.40;99.90;;;11.71;100.00;101122.41;3545926;39;103579;-82
2021/08/03 00:16:08;;;;;;;2.67;2.00;;;13.30;99.90;;;11.80;100.00;101121.56;3547594;39;100055;-82
2021/08/03 00:18:35;;;;;;;7.10;2.60;;;13.30;99.90;;;11.74;100.00;101115.94;3555714;39;100032;-80
2021/08/03 00:21:03;;;;;;;3.43;2.63;;;13.30;99.90;;;11.75;100.00;101133.69;3545287;39;103064;-81
2021/08/03 00:23:32;;;;;;;4.67;2.70;;;13.30;99.90;;;11.70;100.00;101127.91;3553136;39;101304;-81
2021/08/03 00:25:59;;;;;;;2.30;1.60;;;13.30;99.90;;;11.62;100.00;101135.84;3550139;39;102222;-80
2021/08/03 00:28:26;;;;;;;2.83;2.40;;;13.40;99.90;;;11.66;100.00;101177.44;3550157;39;100142;-81
2021/08/03 00:30:53;;;;;;;2.03;1.83;;;13.40;99.90;;;11.67;100.00;101208.63;3546397;39;100845;-82
2021/08/03 00:33:21;;;;;;;2.33;2.13;;;13.30;99.90;;;11.65;100.00;101235.56;3545880;39;103155;-81
2021/08/03 00:35:50;;;;;;;1.60;1.50;;;13.30;99.90;;;11.71;100.00;101258.31;3546797;39;102143;-82
2021/08/03 00:38:19;;;;;;;7.00;2.33;;;13.30;99.90;;;11.67;100.00;101273.81;3537374;39;100844;-81
2021/08/03 00:40:56;;;;;;;2.67;2.07;;;13.30;99.90;;;11.71;100.00;101282.44;3547251;39;103005;-83
2021/08/03 00:43:24;;;;;;;2.27;2.07;;;13.30;99.90;;;11.68;100.00;101280.03;3547069;39;103101;-82
2021/08/03 00:45:52;;;;;;;2.63;2.30;;;13.30;99.90;;;11.70;100.00;101265.50;3546798;39;101943;-80
2021/08/03 00:48:20;;;;;;;3.13;2.00;;;13.30;99.90;;;11.73;100.00;101248.28;3546064;39;99903;-83
2021/08/03 00:50:47;;;;;;;2.60;2.33;;;13.30;99.90;;;11.68;100.00;101251.38;3547010;39;104017;-82
2021/08/03 00:53:16;;;;;;;3.13;2.40;;;13.30;99.90;;;11.77;100.00;101247.88;3546676;39;102176;-81
2021/08/03 00:55:43;;;;;;;4.43;2.57;;;14.00;99.90;;;11.75;100.00;101231.09;3546558;39;102773;-83
2021/08/03 00:58:13;;;;;;;4.53;2.67;;;13.30;99.90;;;11.83;100.00;101222.34;3545845;39;100013;-83
2021/08/03 01:00:41;;;;;;;2.57;2.20;;;13.40;99.90;;;11.80;100.00;101211.91;3547533;39;100902;-82
2021/08/03 01:03:08;;;;;;;1.90;1.70;;;13.40;99.90;;;11.93;100.00;101206.22;3536784;39;102680;-80
2021/08/03 01:05:46;;;;;;;4.47;2.50;;;13.40;99.90;;;11.83;100.00;101193.69;3556836;39;100238;-81
2021/08/03 01:08:23;;;;;;;4.03;2.10;;;13.40;99.90;;;11.86;100.00;101181.84;3568331;39;100083;-80
2021/08/03 01:11:02;;;;;;;1.70;1.57;;;14.20;99.90;;;11.79;100.00;101172.66;3553684;39;101374;-82
2021/08/03 01:13:46;;;;;;;2.27;2.03;;;13.40;99.90;;;11.82;100.00;101173.22;3537407;39;102524;-82
2021/08/03 01:16:28;;;;;;;4.37;2.60;;;13.50;99.90;;;11.79;100.00;101165.47;3550187;39;100221;-82
2021/08/03 01:19:18;;;;;;;3.30;2.30;;;13.90;99.90;;;11.81;100.00;101146.56;3555351;39;100172;-82
2021/08/03 01:21:52;;;;;;;4.30;2.67;;;14.50;99.90;;;11.75;100.00;101144.41;3546003;39;100355;-82
2021/08/03 01:24:45;;;;;;;4.40;2.73;;;13.50;99.90;;;11.75;100.00;101142.59;3550534;39;100681;-82
2021/08/03 01:28:01;;;;;;;5.57;2.60;;;13.50;99.90;;;11.81;100.00;101127.78;3547442;39;102029;-83
2021/08/03 01:30:34;;;;;;;5.67;2.33;;;13.50;99.90;;;11.88;100.00;101123.50;3526358;39;100215;-81
2021/08/03 01:33:02;;;;;;;2.50;2.30;;;14.00;99.90;;;11.84;100.00;101104.22;3540760;39;101443;-83
2021/08/03 01:35:30;;;;;;;2.67;2.20;;;13.60;99.90;;;11.80;100.00;101099.28;3543710;39;102999;-83
2021/08/03 01:38:01;;;;;;;2.97;1.90;;;13.60;99.90;;;11.86;100.00;101101.38;3538685;39;102262;-83
2021/08/03 01:40:31;;;;;;;2.60;2.10;;;14.30;99.90;;;11.86;100.00;101088.81;3549652;39;99983;-84
2021/08/03 01:43:00;;;;;;;2.33;1.87;;;13.70;99.90;;;11.86;100.00;101086.16;3538266;39;102746;-81
2021/08/03 01:45:32;;;;;;;4.40;2.03;;;13.80;99.90;;;12.10;100.00;101090.13;3538601;39;101768;-81
2021/08/03 01:48:02;;;;;;;1.93;1.83;;;13.60;99.90;;;11.94;100.00;101049.69;3537611;39;102083;-81
2021/08/03 01:50:36;;;;;;;2.10;1.67;;;14.30;99.90;;;11.96;100.00;101061.13;3547458;39;99941;-81
2021/08/03 01:53:07;;;;;;;3.97;2.13;;;14.60;99.90;;;11.97;100.00;101068.16;3537046;39;101665;-80
2021/08/03 01:55:34;;;;;;;2.37;1.93;;;13.70;99.90;;;12.06;100.00;101056.53;3547901;39;101107;-81
2021/08/03 01:58:08;;;;;;;2.90;1.83;;;13.70;99.90;;;12.06;100.00;101046.66;3537816;39;101617;-82
2021/08/03 02:00:52;;;;;;;3.70;2.50;;;14.20;99.90;;;12.03;100.00;101033.53;3536877;39;100404;-82
2021/08/03 02:03:22;;;;;;;3.10;1.83;;;13.70;99.90;;;11.96;100.00;101023.56;3538432;39;102962;-82
2021/08/03 02:05:57;;;;;;;3.60;2.40;;;14.90;99.90;;;11.95;100.00;101033.44;3544917;39;103099;-83
2021/08/03 02:08:31;;;;;;;5.00;1.80;;;14.40;99.90;;;12.08;100.00;101036.63;3565578;39;100322;-83
2021/08/03 02:11:12;;;;;;;2.73;2.17;;;14.50;99.90;;;12.11;100.00;101022.06;3577726;39;99083;-82
2021/08/03 02:13:39;;;;;;;2.07;1.87;;;14.80;99.90;;;12.00;100.00;101016.88;3568539;39;99786;-83
2021/08/03 02:16:15;;;;;;;2.47;1.77;;;13.80;99.90;;;11.87;100.00;101006.50;3549387;39;103741;-83
2021/08/03 02:18:47;;;;;;;2.00;1.80;;;13.80;99.90;;;11.84;100.00;101014.88;3533020;39;102409;-82
2021/08/03 02:21:20;;;;;;;2.43;2.20;;;14.60;99.90;;;11.87;100.00;101026.13;3548499;39;100021;-82
2021/08/03 02:23:48;;;;;;;3.37;2.23;;;13.80;99.90;;;11.89;100.00;101031.34;3549162;39;101172;-82
2021/08/03 02:26:16;;;;;;;3.50;1.77;;;14.50;99.90;;;11.85;100.00;101028.13;3547339;39;102409;-84
2021/08/03 02:28:44;;;;;;;3.03;2.30;;;13.70;99.90;;;11.90;100.00;101014.25;3548827;39;101948;-81
2021/08/03 02:31:21;;;;;;;3.03;1.80;;;13.70;99.90;;;11.95;100.00;101009.31;3547690;39;99942;-83
2021/08/03 02:33:55;;;;;;;2.40;1.80;;;14.40;99.90;;;11.90;100.00;101002.69;3535594;39;102616;-81
2021/08/03 02:36:28;;;;;;;2.43;1.63;;;14.50;99.90;;;11.83;100.00;100992.56;3539230;39;101794;-83
2021/08/03 02:39:04;;;;;;;2.53;2.00;;;14.20;99.90;;;11.82;100.00;101000.78;3548080;39;101642;-82
2021/08/03 02:41:33;;;;;;;2.37;1.77;;;13.60;99.90;;;11.88;100.00;101005.53;3548774;39;99753;-85
2021/08/03 02:44:05;;;;;;;2.40;1.50;;;13.60;99.90;;;11.88;100.00;100998.31;3541841;39;101571;-83
2021/08/03 02:46:36;;;;;;;8.43;2.10;;;14.60;99.90;;;11.87;100.00;100987.75;3541391;39;102760;-81
2021/08/03 02:49:05;;;;;;;2.90;1.80;;;14.50;99.90;;;11.85;100.00;100987.06;3554179;39;100408;-82
2021/08/03 02:51:36;;;;;;;2.17;1.80;;;13.70;99.90;;;11.85;100.00;100984.38;3536803;39;100594;-81
2021/08/03 02:54:15;;;;;;;2.83;2.07;;;13.70;99.90;;;11.86;100.00;100991.44;3557083;39;100556;-81
2021/08/03 02:56:45;;;;;;;2.97;1.90;;;13.60;99.90;;;11.90;100.00;100984.75;3561496;39;101665;-83
2021/08/03 02:59:16;;;;;;;2.17;1.97;;;13.60;99.90;;;11.89;100.00;100977.72;3543302;39;101746;-82
2021/08/03 03:01:46;;;;;;;2.23;2.00;;;14.80;99.90;;;11.88;100.00;100976.88;3555929;39;99806;-83
2021/08/03 03:04:22;;;;;;;2.50;1.90;;;14.50;99.90;;;11.91;100.00;100975.72;3551500;39;100800;-83
2021/08/03 03:06:56;;;;;;;6.10;2.23;;;13.60;99.90;;;12.00;100.00;100968.59;3546970;39;101241;-84
2021/08/03 03:09:29;;;;;;;1.53;1.33;;;14.80;99.90;;;12.01;100.00;100951.53;3539155;39;102135;-82
2021/08/03 03:11:58;;;;;;;3.57;2.07;;;13.70;99.90;;;11.92;100.00;100931.00;3552784;39;99961;-81
2021/08/03 03:14:29;;;;;;;2.37;1.63;;;13.60;99.90;;;11.91;100.00;100938.19;3554951;39;100514;-81
2021/08/03 03:17:01;;;;;;;2.20;1.70;;;13.70;99.90;;;11.86;100.00;100937.81;3539171;39;101853;-83
2021/08/03 03:19:33;;;;;;;2.53;1.93;;;13.70;99.90;;;11.91;100.00;100961.47;3538148;39;102295;-84
2021/08/03 03:22:05;;;;;;;2.77;1.70;;;13.60;99.90;;;11.93;100.00;100954.97;3549975;39;99851;-81
2021/08/03 03:24:37;;;;;;;2.23;1.70;;;14.90;99.90;;;12.00;100.00;100941.78;3547044;39;100393;-82
2021/08/03 03:27:08;;;;;;;1.93;1.73;;;14.20;99.90;;;12.03;100.00;100942.34;3546065;39;102573;-81
2021/08/03 03:29:39;;;;;;;2.23;1.90;;;13.60;99.90;;;12.04;100.00;100916.34;3547741;39;102539;-82
2021/08/03 03:32:10;;;;;;;2.23;1.70;;;13.80;99.90;;;12.00;100.00;100914.97;3546859;39;99789;-81
2021/08/03 03:34:42;;;;;;;2.73;2.00;;;13.80;99.90;;;11.97;100.00;100901.88;3546431;39;102598;-83
2021/08/03 03:37:09;;;;;;;3.17;2.10;;;13.70;99.90;;;11.95;100.00;100904.72;3549561;39;102423;-82
2021/08/03 03:39:38;;;;;;;2.20;1.73;;;13.70;99.90;;;12.01;100.00;100887.16;3567941;39;99928;-83
2021/08/03 03:42:07;;;;;;;2.43;1.57;;;13.70;99.90;;;12.01;100.00;100892.53;3542855;39;99569;-81
2021/08/03 03:44:36;;;;;;;3.07;2.03;;;13.70;99.90;;;11.94;100.00;100884.25;3545087;39;102506;-83
2021/08/03 03:47:16;;;;;;;9.50;1.87;;;13.70;99.90;;;12.00;100.00;100893.50;3546596;39;102240;-82
2021/08/03 03:49:47;;;;;;;2.13;1.63;;;13.70;99.90;;;12.03;100.00;100882.50;3548218;39;100882;-83
2021/08/03 03:52:20;;;;;;;3.20;1.97;;;13.70;99.90;;;12.02;100.00;100878.97;3538169;39;99451;-81
2021/08/03 03:54:51;;;;;;;3.17;1.63;;;13.60;99.90;;;12.09;100.00;100873.84;3547773;39;102204;-83
2021/08/03 03:57:22;;;;;;;3.57;1.80;;;13.70;99.90;;;12.00;100.00;100880.94;3540003;39;102741;-83
2021/08/03 03:59:52;;;;;;;2.17;1.80;;;13.60;99.90;;;12.09;100.00;100900.66;3547731;39;101000;-81
2021/08/03 04:02:23;;;;;;;2.00;1.47;;;13.60;99.90;;;11.99;100.00;100897.22;3536980;39;99905;-82
2021/08/03 04:04:51;;;;;;;3.57;1.70;;;13.70;99.90;;;12.02;100.00;100897.72;3545898;39;102682;-82
2021/08/03 04:07:18;;;;;;;2.30;1.73;;;13.70;99.90;;;12.08;100.00;100893.63;3547084;39;100905;-83
2021/08/03 04:09:46;;;;;;;2.30;1.90;;;13.70;99.90;;;12.08;100.00;100874.84;3555299;39;100063;-82
2021/08/03 04:12:15;;;;;;;2.20;1.43;;;13.70;99.90;;;12.19;100.00;100877.28;3558348;39;99767;-81
2021/08/03 04:14:45;;;;;;;1.97;1.73;;;13.80;99.90;;;12.15;100.00;100867.84;3549490;39;100770;-82
2021/08/03 04:17:14;;;;;;;2.00;1.60;;;14.00;99.90;;;12.21;100.00;100875.28;3537546;39;103285;-83
2021/08/03 04:19:44;;;;;;;1.93;1.17;;;13.80;99.90;;;12.25;100.00;100871.28;3537597;39;102067;-81
2021/08/03 04:22:11;;;;;;;2.27;2.07;;;13.90;99.90;;;12.28;100.00;100857.56;3554529;39;99948;-82
2021/08/03 04:24:38;;;;;;;1.97;1.50;;;14.10;99.90;;;12.36;100.00;100846.06;3563284;39;99632;-79
2021/08/03 04:27:05;;;;;;;2.80;1.70;;;13.90;99.90;;;12.32;100.00;100836.63;3552561;39;100868;-83
2021/08/03 04:29:33;;;;;;;3.33;1.57;;;14.00;99.90;;;12.33;100.00;100822.22;3549669;39;100241;-83
2021/08/03 04:32:01;;;;;;;1.67;1.27;;;14.00;99.90;;;12.39;100.00;100821.59;3547963;39;99803;-81
2021/08/03 04:34:28;;;;;;;1.53;1.43;;;14.00;99.90;;;12.50;100.00;100813.28;3549589;39;100411;-82
2021/08/03 04:36:57;;;;;;;1.50;1.23;;;14.00;99.90;;;12.48;100.00;100804.56;3547860;39;103306;-83
2021/08/03 04:39:24;;;;;;;2.70;1.23;;;14.10;99.90;;;12.61;100.00;100790.72;3551589;39;100136;-84
2021/08/03 04:41:51;;;;;;;3.73;1.60;;;14.20;99.90;;;12.68;100.00;100783.69;3547736;39;99684;-82
2021/08/03 04:44:18;;;;;;;2.10;1.50;;;14.20;99.90;;;12.67;100.00;100777.47;3537382;39;101168;-83
2021/08/03 04:46:45;;;;;;;1.97;1.30;;;14.30;99.90;;;12.68;100.00;100773.78;3547290;39;100991;-83
2021/08/03 04:49:12;;;;;;;1.37;1.27;;;15.50;99.90;;;12.57;100.00;100758.81;3536122;39;101851;-84
2021/08/03 04:51:39;;;;;;;2.53;1.47;;;14.40;99.90;;;12.67;100.00;100756.00;3536453;39;100607;-82
2021/08/03 04:54:08;;;;;;;2.10;1.50;;;15.10;99.90;;;12.74;100.00;100748.13;3548053;39;100397;-82
2021/08/03 04:56:35;;;;;;;2.00;1.43;;;14.50;99.90;;;12.69;100.00;100745.94;3558071;39;101047;-82
2021/08/03 04:59:02;;;;;;;1.70;1.43;;;14.50;99.90;;;12.90;100.00;100749.06;3548083;39;101957;-83
2021/08/03 05:01:29;;;;;;;2.40;1.83;;;14.50;99.90;;;12.87;100.00;100722.50;3541943;39;99951;-81
2021/08/03 05:03:56;;;;;;;2.30;1.33;;;15.20;99.90;;;12.79;100.00;100700.16;3546694;39;100276;-82
2021/08/03 05:06:23;;;;;;;2.03;1.60;;;14.60;99.90;;;13.01;100.00;100715.69;3546244;39;103554;-82
2021/08/03 05:08:51;;;;;;;6.18;1.27;;;14.70;99.90;;;12.90;100.00;100689.97;3542172;39;102154;-84
2021/08/03 05:11:19;;;;;;;2.73;1.83;;;14.70;99.90;;;12.86;100.00;100682.38;3554893;39;99548;-81
2021/08/03 05:13:46;;;;;;;1.52;1.38;;;14.70;99.90;;;12.84;100.00;100682.56;3549006;39;100367;-81
2021/08/03 05:16:13;;;;;;;2.33;1.77;;;14.80;99.90;;;12.95;100.00;100674.22;3547155;39;100894;-82
2021/08/03 05:18:40;;;;;;;1.97;1.70;;;14.80;99.90;;;12.97;100.00;100673.22;3549018;39;99985;-81
2021/08/03 05:21:07;;;;;;;3.13;1.73;;;14.80;99.90;;;12.97;100.00;100649.03;3547565;39;99702;-84
2021/08/03 05:23:34;;;;;;;3.00;1.83;;;14.80;99.90;;;13.04;100.00;100644.66;3549536;39;102720;-82
2021/08/03 05:26:01;;;;;;;3.03;2.13;;;15.30;99.90;;;13.22;100.00;100650.78;3538791;39;102625;-82
2021/08/03 05:28:30;;;;;;;2.17;1.70;;;14.80;99.90;;;13.72;100.00;100649.78;3541248;39;99912;-82
2021/08/03 05:30:57;;;;;;;1.97;1.80;;;14.90;99.90;;;14.03;100.00;100629.22;3546182;39;99848;-82
2021/08/03 05:33:23;;;;;;;2.55;1.88;;;15.00;99.90;;;14.18;100.00;100622.09;3556392;39;101193;-83
2021/08/03 05:35:51;;;;;;;2.85;1.95;;;15.10;99.90;;;14.60;100.00;100564.38;3547725;39;102551;-83
2021/08/03 05:38:18;;;;;;;3.67;2.20;;;15.30;99.90;;;14.71;100.00;100516.34;3557667;39;99870;-81
2021/08/03 05:40:46;;;;;;;5.78;2.08;;;15.50;99.90;;;14.78;100.00;100451.81;3557191;39;99812;-81
2021/08/03 05:43:13;;;;;;;1.42;1.33;;;15.70;99.90;;;14.64;100.00;100401.44;3548006;39;102125;-83
2021/08/03 05:45:42;;;;;;;4.20;1.77;;;15.80;99.90;;;14.72;100.00;100355.56;3556021;39;100112;-83
2021/08/03 05:48:09;;;;;;;2.13;1.90;;;16.00;99.90;;;14.94;100.00;100333.13;3557943;39;100697;-82
2021/08/03 05:50:39;;;;;;;1.88;1.45;;;16.10;99.90;;;15.27;100.00;100295.00;3554553;39;99693;-83
2021/08/03 05:53:06;;;;;;;2.05;1.55;;;16.20;99.90;;;15.37;100.00;100260.50;3561823;39;99792;-83
2021/08/03 05:55:33;;;;;;;4.18;1.80;;;17.30;99.90;;;15.43;100.00;100228.22;3546990;39;100900;-83
2021/08/03 05:58:00;;;;;;;1.80;1.58;;;16.70;99.90;;;15.33;100.00;100221.47;3548439;39;100011;-83
2021/08/03 06:00:28;;;;;;;1.48;1.27;;;16.70;99.90;;;15.92;100.00;100196.97;3549338;39;99541;-81
2021/08/03 06:02:56;;;;;;;4.85;1.77;;;16.90;99.90;;;15.45;100.00;100160.63;3546317;39;102404;-84
2021/08/03 06:05:23;;;;;;;2.28;1.50;;;17.10;99.90;;;15.01;100.00;100137.34;3547035;39;102672;-84
2021/08/03 06:07:57;;;;;;;2.40;1.38;;;17.80;99.90;;;15.42;100.00;100129.50;3559460;39;100580;-82
2021/08/03 06:10:27;;;;;;;2.45;1.60;;;17.20;99.90;;;15.55;100.00;100119.88;3537695;39;99894;-81
2021/08/03 06:12:57;;;;;;;1.50;1.40;;;17.30;99.90;;;15.58;100.00;100117.63;3538094;39;100481;-83
2021/08/03 06:15:27;;;;;;;2.00;1.70;;;17.50;99.90;;;15.65;100.00;100117.69;3538027;39;101366;-81
2021/08/03 06:18:05;;;;;;;1.30;1.17;;;17.60;99.90;;;16.05;100.00;100111.56;3545743;39;100203;-83
2021/08/03 06:20:33;;;;;;;1.98;1.33;;;18.10;99.90;;;15.82;100.00;100090.22;3548309;39;99822;-82
2021/08/03 06:23:03;;;;;;;2.50;2.00;;;19.00;99.90;;;15.41;100.00;100094.63;3543518;39;103483;-83
2021/08/03 06:25:31;;;;;;;1.65;1.42;;;18.20;99.90;;;15.51;100.00;100105.91;3557053;39;100454;-81
2021/08/03 06:27:59;;;;;;;1.80;1.30;;;18.30;99.90;;;15.49;100.00;100112.53;3556802;39;100272;-83
2021/08/03 06:30:27;;;;;;;1.70;1.13;;;18.30;99.90;;;15.68;100.00;100120.00;3558131;39;99742;-83
2021/08/03 06:32:57;;;;;;;1.42;1.33;;;18.30;99.90;;;15.54;100.00;100116.31;3552606;39;99942;-81
2021/08/03 06:35:25;;;;;;;4.18;1.70;;;18.70;99.90;;;15.14;100.00;100128.59;3552542;39;100081;-81
2021/08/03 06:37:52;;;;;;;2.08;1.63;;;19.50;99.90;;;15.41;100.00;100148.56;3545678;39;101990;-81
2021/08/03 06:40:20;;;;;;;1.48;1.35;;;18.40;99.90;;;15.02;100.00;100165.13;3545141;39;99843;-83
2021/08/03 06:42:49;;;;;;;2.08;1.50;;;17.80;99.90;;;15.38;100.00;100181.28;3544491;39;102141;-81
2021/08/03 06:45:20;;;;;;;2.92;1.42;;;18.40;99.90;;;15.86;100.00;100179.69;3556921;39;100895;-81
2021/08/03 06:48:03;;;;;;;2.78;1.52;;;18.40;99.90;;;15.33;100.00;100179.16;3556081;39;100033;-81
2021/08/03 06:50:34;;;;;;;2.70;1.35;;;18.50;99.90;;;15.28;100.00;100184.31;3557004;39;99704;-84
2021/08/03 06:53:05;;;;;;;3.20;1.90;;;18.50;99.90;;;15.19;100.00;100190.00;3547106;39;102201;-83
2021/08/03 06:55:35;;;;;;;2.05;1.40;;;18.50;99.90;;;15.27;100.00;100192.56;3556985;39;100608;-81
2021/08/03 06:58:05;;;;;;;2.38;1.38;;;18.60;99.90;;;16.03;100.00;100202.69;3545559;39;102183;-82
2021/08/03 07:00:38;;;;;;;2.15;1.75;;;18.70;99.90;;;16.46;100.00;100186.34;3557031;39;99896;-82
2021/08/03 07:03:08;;;;;;;1.63;1.23;;;19.70;99.90;;;17.21;100.00;100153.84;3554460;39;100281;-81
2021/08/03 07:05:43;;;;;;;1.50;1.30;;;19.30;99.90;;;17.54;100.00;100148.53;3556401;39;100390;-83
2021/08/03 07:08:13;;;;;;;2.28;1.33;;;19.70;99.90;;;17.12;100.00;100151.56;3556751;39;100465;-83
2021/08/03 07:10:40;;;;;;;1.60;1.25;;;20.00;99.90;;;16.84;100.00;100149.78;3549476;39;99514;-82
2021/08/03 07:13:07;;;;;;;0.95;0.88;;;20.30;99.90;;;17.26;100.00;100155.97;3546942;39;100247;-82
2021/08/03 07:15:35;;;;;;;1.70;1.23;;;20.50;99.90;;;16.81;100.00;100155.59;3559631;39;101014;-81
2021/08/03 07:18:03;;;;;;;1.38;1.10;;;20.70;99.90;;;17.13;100.00;100182.97;3547294;39;100036;-81
2021/08/03 07:20:31;;;;;;;1.90;1.23;;;20.80;99.90;;;17.33;100.00;100189.25;3547037;39;99663;-84
2021/08/03 07:23:02;;;;;;;2.40;1.60;;;20.90;99.90;;;17.17;100.00;100185.06;3546020;39;100148;-80
2021/08/03 07:25:31;;;;;;;1.52;0.80;;;21.20;99.90;;;16.92;100.00;100192.03;3535570;39;100971;-82
2021/08/03 07:27:58;;;;;;;1.55;1.20;;;21.40;99.90;;;17.70;100.00;100201.41;3536377;39;100164;-81
2021/08/03 07:30:25;;;;;;;1.92;1.20;;;21.60;99.90;;;17.06;100.00;100204.53;3537093;39;99872;-83
2021/08/03 07:32:52;;;;;;;1.20;0.80;;;21.80;99.00;;;17.59;100.00;100188.47;3551994;39;100640;-81
2021/08/03 07:35:19;;;;;;;3.80;1.25;;;22.00;99.10;;;18.08;100.00;100209.75;3555514;39;101372;-81
2021/08/03 07:37:48;;;;;;;1.70;1.30;;;22.20;98.80;;;17.52;100.00;100212.81;3551839;39;99940;-84
2021/08/03 07:40:15;;;;;;;1.15;0.82;;;22.40;97.90;;;17.76;100.00;100226.84;3545567;39;99676;-83
2021/08/03 07:42:42;;;;;;;2.30;1.23;;;22.60;96.70;;;17.52;100.00;100226.34;3555068;39;100558;-85
2021/08/03 07:45:10;;;;;;;2.30;1.27;;;22.80;95.30;;;17.32;100.00;100238.13;3547019;39;101899;-81
2021/08/03 07:47:38;;;;;;;1.55;1.10;;;22.90;94.10;;;17.62;100.00;100262.97;3545204;39;102284;-82
2021/08/03 07:50:06;;;;;;;1.92;1.33;;;22.90;94.10;;;17.88;100.00;100268.50;3548050;39;99730;-83
2021/08/03 07:52:33;;;;;;;3.92;1.48;;;22.90;93.50;;;17.72;100.00;100253.47;3556638;39;99743;-81
2021/08/03 07:55:01;;;;;;;1.08;0.93;;;24.10;93.00;;;18.70;100.00;100261.81;3557043;39;100458;-84
2021/08/03 07:57:28;;;;;;;2.13;1.35;;;23.20;92.40;;;18.75;100.00;100227.63;3546343;39;100828;-84
2021/08/03 07:59:55;;;;;;;4.60;1.20;;;23.40;92.80;;;18.73;100.00;100232.44;3561636;39;99629;-81
2021/08/03 08:02:22;;;;;;;1.48;1.15;;;24.60;92.40;;;19.07;100.00;100238.56;3556928;39;100961;-81
2021/08/03 08:04:49;;;;;;;2.17;1.25;;;23.90;91.70;;;18.63;100.00;100189.50;3548266;39;100358;-82
2021/08/03 08:07:16;;;;;;;2.42;0.88;;;24.10;90.80;;;18.20;100.00;100223.50;3547678;39;99835;-83
2021/08/03 08:09:43;;;;;;;0.93;0.80;;;24.10;88.90;;;18.62;100.00;100241.22;3557048;39;99719;-82
2021/08/03 08:12:12;;;;;;;1.38;1.15;;;24.60;89.00;;;18.07;100.00;100248.72;3554745;39;100827;-84
2021/08/03 08:14:39;;;;;;;2.30;0.88;;;24.50;89.00;;;17.85;100.00;100266.19;3546511;39;100955;-85
2021/08/03 08:17:06;;;;;;;2.22;1.80;;;23.80;87.50;;;18.09;100.00;100276.41;3547459;39;100018;-84
2021/08/03 08:19:33;;;;;;;5.03;1.98;;;23.60;85.80;;;17.88;100.00;100263.06;3535087;39;99919;-82
2021/08/03 08:22:00;;;;;;;1.38;1.27;;;24.30;86.70;;;18.26;100.00;100260.59;3547032;39;101018;-84
2021/08/03 08:24:27;;;;;;;2.67;1.98;;;23.90;87.60;;;18.70;100.00;100243.69;3552075;39;100254;-81
2021/08/03 08:26:54;;;;;;;3.55;1.83;;;23.00;88.90;;;18.47;100.00;100218.91;3556018;39;101233;-81
2021/08/03 08:29:23;;;;;;;1.85;1.42;;;24.00;88.90;;;18.97;100.00;100231.72;3545279;39;99691;-82
2021/08/03 08:31:50;;;;;;;2.78;1.48;;;23.30;87.90;;;19.58;100.00;100271.13;3556258;39;100434;-81
2021/08/03 08:34:18;;;;;;;1.85;1.63;;;24.10;88.50;;;19.06;100.00;100278.41;3562290;39;99971;-79
2021/08/03 08:36:45;;;;;;;2.25;1.73;;;23.50;87.60;;;18.11;100.00;100300.59;3568194;39;99604;-84
2021/08/03 08:39:13;;;;;;;1.75;1.20;;;23.50;85.70;;;18.11;100.00;100317.66;3563817;39;99411;-82
2021/08/03 08:41:41;;;;;;;1.67;1.35;;;23.40;85.40;;;17.94;100.00;100341.56;3559107;39;99830;-83
2021/08/03 08:44:10;;;;;;;3.97;1.10;;;24.10;86.10;;;18.89;100.00;100362.09;3554247;39;99413;-84
2021/08/03 08:46:40;;;;;;;2.58;1.88;;;23.20;86.40;;;19.23;100.00;100346.59;3544342;39;99654;-83
2021/08/03 08:49:08;;;;;;;3.55;1.60;;;23.90;87.90;;;19.24;100.00;100332.00;3563023;39;99817;-82
2021/08/03 08:51:36;;;;;;;3.53;1.63;;;23.90;88.90;;;19.51;100.00;100328.19;3550722;39;99664;-83
2021/08/03 08:54:04;;;;;;;2.17;1.65;;;23.20;88.90;;;19.20;100.00;100309.03;3560209;39;100515;-83
2021/08/03 08:56:31;;;;;;;5.25;1.30;;;23.40;88.70;;;19.57;100.00;100321.03;3554352;39;99253;-83
2021/08/03 08:58:58;;;;;;;1.63;1.50;;;23.60;88.30;;;19.81;100.00;100292.28;3575291;39;98865;-84
2021/08/03 09:01:25;;;;;;;1.80;1.60;;;23.70;86.90;;;20.25;100.00;100351.16;3555592;39;96336;-82
2021/08/03 09:03:53;;;;;;;1.58;1.48;;;23.90;86.70;;;20.60;100.00;100327.06;3569166;39;100874;-81
2021/08/03 09:06:22;;;;;;;1.73;1.63;;;24.90;86.90;;;19.54;100.00;100307.88;3566534;39;99198;-81
2021/08/03 09:08:51;;;;;;;6.20;2.78;;;25.00;84.70;;;19.14;100.00;100328.91;3570825;39;98316;-83
2021/08/03 09:11:21;;;;;;;2.92;2.63;;;24.40;82.50;;;19.26;100.00;100355.16;3590034;39;98799;-82
2021/08/03 09:13:56;;;;;;;4.22;1.83;;;24.50;81.90;;;19.99;100.00;100363.84;3554777;39;99498;-82
2021/08/03 09:16:25;;;;;;;3.22;2.92;;;25.40;81.50;;;19.94;100.00;100327.53;3542866;39;102440;-83
2021/08/03 09:18:55;;;;;;;3.33;2.13;;;24.50;80.20;;;19.94;100.00;100317.50;3561304;39;99130;-83
2021/08/03 09:21:26;;;;;;;2.28;2.08;;;24.70;78.60;;;19.67;100.00;100299.69;3561589;39;100777;-83
2021/08/03 09:23:57;;;;;;;1.98;1.88;;;24.40;75.40;;;20.08;100.00;100285.66;3567802;39;98651;-82
2021/08/03 09:26:41;;;;;;;2.92;2.25;;;24.30;75.30;;;20.31;100.00;100283.16;3605810;39;20254;-83
2021/08/03 09:29:11;;;;;;;2.15;1.95;;;24.30;76.30;;;20.58;100.00;100272.94;3603170;39;73048;-83
2021/08/03 09:31:42;;;;;;;2.83;1.80;;;24.40;75.70;;;20.77;100.00;100274.59;3615269;39;20276;-82
2021/08/03 09:34:16;;;;;;;3.35;2.05;;;24.50;73.90;;;21.48;100.00;100407.44;3610911;39;20272;-84
2021/08/03 09:36:51;;;;;;;2.15;2.00;;;24.70;74.30;;;21.02;100.00;100363.47;3623242;39;20288;-84
2021/08/03 09:39:40;;;;;;;2.83;2.50;;;24.80;72.50;;;20.99;100.00;100369.41;3620606;39;20275;-83
2021/08/03 09:42:14;;;;;;;2.65;1.92;;;25.10;72.50;;;20.96;100.00;100383.44;3610865;39;20981;-82
2021/08/03 09:44:49;;;;;;;1.88;1.77;;;25.10;72.00;;;20.19;100.00;100376.47;3621910;39;20757;-82
2021/08/03 09:47:17;;;;;;;2.35;2.03;;;25.50;70.60;;;20.62;100.00;100426.41;3618232;39;20658;-83
2021/08/03 09:49:49;;;;;;;2.25;2.05;;;25.90;71.10;;;20.87;100.00;100390.22;3607252;39;20489;-82
2021/08/03 09:52:18;;;;;;;2.35;1.63;;;25.20;68.00;;;21.18;100.00;100352.03;3609086;39;20343;-82
2021/08/03 09:54:45;;;;;;;1.80;1.70;;;25.30;67.00;;;20.70;100.00;100308.38;3607546;39;21570;-81
2021/08/03 09:57:23;;;;;;;2.13;1.92;;;25.30;65.50;;;20.01;100.00;100312.88;3620002;39;22311;-82
2021/08/03 09:59:52;;;;;;;2.17;1.98;;;25.60;64.60;;;20.42;100.00;100316.97;3600994;39;20250;-83
2021/08/03 10:02:22;;;;;;;1.70;1.60;;;25.30;65.00;;;20.51;100.00;100315.66;3619542;39;20257;-82
2021/08/03 10:04:52;;;;;;;1.38;1.27;;;24.40;65.60;;;20.22;100.00;100316.25;3621662;39;61187;-80
2021/08/03 10:07:20;;;;;;;2.95;1.88;;;24.80;66.60;;;20.13;100.00;100342.88;3595079;39;40354;-81
2021/08/03 10:09:49;;;;;;;1.35;1.25;;;24.60;68.10;;;19.78;100.00;100377.72;3615989;39;50430;-82
2021/08/03 10:12:18;;;;;;;1.75;1.65;;;24.50;69.70;;;19.86;100.00;100418.22;3604987;39;46410;-82
2021/08/03 10:14:45;;;;;;;1.70;1.60;;;25.20;71.90;;;19.47;100.00;100430.00;3610333;39;92797;-83